createdAt,value
2023-01-09T00:00:57.853Z,13.85
2023-01-09T00:03:25.823Z,12.79
2023-01-09T00:05:53.784Z,14.66
2023-01-09T00:08:21.494Z,15.22
2023-01-09T00:10:50.312Z,16.86
2023-01-09T00:13:19.421Z,16.95
2023-01-09T00:15:48.875Z,15.83
2023-01-09T00:18:16.668Z,16.28
2023-01-09T00:20:44.502Z,15.86
2023-01-09T00:23:12.261Z,17.21
2023-01-09T00:25:42.510Z,16.44
2023-01-09T00:28:10.522Z,16.15
2023-01-09T00:30:39.638Z,15.46
2023-01-09T00:33:07.374Z,16.37
2023-01-09T00:35:35.233Z,16.27
2023-01-09T00:38:03.560Z,16.44
2023-01-09T00:40:31.376Z,17.02
2023-01-09T00:42:59.932Z,16.76
2023-01-09T00:45:30.416Z,17.43
2023-01-09T00:48:05.057Z,16.85
2023-01-09T00:50:35.037Z,16.57
2023-01-09T00:53:10.142Z,17.45
2023-01-09T00:55:39.243Z,16.76
2023-01-09T00:58:07.743Z,15.80
2023-01-09T01:00:35.778Z,15.82
2023-01-09T01:03:05.108Z,16.06
2023-01-09T01:05:50.073Z,15.90
2023-01-09T01:08:19.955Z,15.39
2023-01-09T01:10:49.018Z,14.31
2023-01-09T01:13:17.268Z,14.74
2023-01-09T01:15:46.432Z,15.28
2023-01-09T01:18:15.802Z,14.58
2023-01-09T01:20:43.999Z,15.02
2023-01-09T01:23:11.921Z,15.51
2023-01-09T01:25:40.697Z,16.45
2023-01-09T01:28:09.026Z,15.15
2023-01-09T01:30:39.227Z,14.44
2023-01-09T01:33:07.119Z,15.06
2023-01-09T01:35:36.591Z,15.14
2023-01-09T01:38:05.052Z,15.48
2023-01-09T01:40:34.456Z,15.57
2023-01-09T01:43:02.251Z,15.25
2023-01-09T01:45:33.015Z,15.78
2023-01-09T01:48:05.139Z,15.91
2023-01-09T01:50:39.512Z,15.46
2023-01-09T01:53:13.896Z,15.17
2023-01-09T01:55:45.831Z,15.99
2023-01-09T01:58:16.958Z,16.45
2023-01-09T02:00:46.375Z,16.31
2023-01-09T02:03:16.901Z,16.46
2023-01-09T02:05:45.650Z,15.16
2023-01-09T02:08:15.220Z,16.25
2023-01-09T02:10:43.595Z,15.48
2023-01-09T02:13:13.109Z,15.89
2023-01-09T02:15:52.908Z,16.10
2023-01-09T02:18:44.078Z,15.95
2023-01-09T02:21:22.717Z,16.77
2023-01-09T02:24:17.849Z,15.33
2023-01-09T02:27:08.758Z,16.19
2023-01-09T02:30:15.152Z,15.87
2023-01-09T02:32:57.695Z,15.25
2023-01-09T02:35:41.437Z,16.17
2023-01-09T02:38:22.168Z,15.59
2023-01-09T02:40:56.956Z,16.14
2023-01-09T02:43:26.545Z,16.33
2023-01-09T02:45:54.325Z,16.41
2023-01-09T02:48:23.503Z,100.00
2023-01-09T02:50:59.797Z,12.34
2023-01-09T02:53:59.516Z,12.94
2023-01-09T02:56:42.448Z,11.57
2023-01-09T02:59:26.693Z,10.36
2023-01-09T03:02:07.634Z,8.71
2023-01-09T03:04:47.123Z,9.31
2023-01-09T03:07:22.760Z,9.74
2023-01-09T03:09:53.523Z,10.41
2023-01-09T03:12:24.598Z,10.33
2023-01-09T03:14:57.644Z,10.46
2023-01-09T03:17:29.205Z,10.00
2023-01-09T03:20:01.991Z,10.52
2023-01-09T03:22:29.758Z,11.12
2023-01-09T03:24:57.543Z,10.50
2023-01-09T03:27:25.371Z,9.49
2023-01-09T03:29:53.518Z,10.07
2023-01-09T03:32:21.214Z,9.81
2023-01-09T03:34:49.021Z,9.67
2023-01-09T03:37:18.162Z,9.85
2023-01-09T03:39:45.951Z,10.59
2023-01-09T03:42:13.858Z,11.70
2023-01-09T03:44:41.656Z,9.74
2023-01-09T03:47:09.417Z,9.71
2023-01-09T03:49:37.287Z,9.12
2023-01-09T03:52:05.456Z,9.33
2023-01-09T03:54:34.578Z,9.33
2023-01-09T03:57:02.675Z,9.76
2023-01-09T03:59:30.482Z,9.63
2023-01-09T04:01:58.457Z,9.56
2023-01-09T04:04:26.302Z,100.00
2023-01-09T04:06:54.091Z,8.29
2023-01-09T04:09:22.100Z,7.69
2023-01-09T04:11:51.248Z,8.54
2023-01-09T04:14:19.104Z,8.55
2023-01-09T04:16:47.044Z,9.56
2023-01-09T04:19:15.063Z,9.18
2023-01-09T04:21:42.836Z,8.71
2023-01-09T04:24:10.683Z,8.51
2023-01-09T04:26:38.601Z,7.89
2023-01-09T04:29:08.069Z,9.04
2023-01-09T04:31:36.043Z,9.15
2023-01-09T04:34:03.995Z,8.89
2023-01-09T04:36:34.443Z,9.37
2023-01-09T04:39:02.396Z,11.13
2023-01-09T04:41:47.812Z,10.68
2023-01-09T04:44:17.925Z,9.34
2023-01-09T04:46:45.689Z,9.79
2023-01-09T04:49:13.743Z,9.52
2023-01-09T04:51:41.664Z,10.03
2023-01-09T04:54:09.385Z,10.63
2023-01-09T04:56:37.205Z,10.25
2023-01-09T04:59:05.685Z,9.34
2023-01-09T05:01:34.988Z,9.95
2023-01-09T05:04:03.047Z,9.04
2023-01-09T05:06:31.420Z,10.54
2023-01-09T05:08:59.368Z,10.55
2023-01-09T05:11:27.674Z,10.41
2023-01-09T05:13:55.561Z,10.30
2023-01-09T05:16:23.308Z,11.49
2023-01-09T05:18:56.467Z,11.72
2023-01-09T05:21:24.467Z,15.17
2023-01-09T05:23:52.267Z,12.59
2023-01-09T05:26:23.814Z,12.80
2023-01-09T05:28:51.957Z,13.73
2023-01-09T05:31:20.285Z,15.07
2023-01-09T05:33:48.033Z,14.49
2023-01-09T05:36:17.481Z,14.81
2023-01-09T05:38:45.466Z,14.05
2023-01-09T05:41:13.657Z,13.67
2023-01-09T05:43:41.624Z,14.38
2023-01-09T05:46:10.169Z,14.18
2023-01-09T05:48:39.086Z,14.40
2023-01-09T05:51:07.237Z,13.97
2023-01-09T05:53:36.725Z,15.20
2023-01-09T05:56:05.222Z,17.15
2023-01-09T05:58:33.450Z,16.74
2023-01-09T06:01:01.369Z,14.12
2023-01-09T06:03:29.355Z,13.61
2023-01-09T06:05:57.565Z,11.58
2023-01-09T06:08:27.353Z,13.48
2023-01-09T06:10:56.756Z,15.35
2023-01-09T06:13:24.507Z,15.35
2023-01-09T06:15:52.271Z,14.98
2023-01-09T06:18:19.987Z,13.35
2023-01-09T06:20:47.778Z,14.93
2023-01-09T06:23:15.556Z,17.34
2023-01-09T06:25:43.597Z,14.73
2023-01-09T06:28:12.701Z,15.68
2023-01-09T06:30:40.521Z,14.34
2023-01-09T06:33:08.257Z,13.97
2023-01-09T06:35:35.995Z,10.36
2023-01-09T06:38:04.011Z,11.31
2023-01-09T06:40:31.768Z,12.54
2023-01-09T06:42:59.515Z,14.15
2023-01-09T06:45:28.593Z,16.19
2023-01-09T06:47:56.344Z,13.52
2023-01-09T06:50:24.136Z,14.99
2023-01-09T06:52:51.963Z,14.88
2023-01-09T06:55:19.758Z,11.75
2023-01-09T06:57:47.603Z,12.76
2023-01-09T07:00:16.165Z,13.00
2023-01-09T07:02:45.237Z,17.26
2023-01-09T07:05:13.414Z,17.17
2023-01-09T07:07:42.178Z,11.38
2023-01-09T07:10:11.325Z,13.25
2023-01-09T07:12:39.110Z,12.79
2023-01-09T07:15:07.936Z,11.38
2023-01-09T07:17:35.935Z,12.24
2023-01-09T07:20:06.039Z,12.56
2023-01-09T07:22:34.012Z,11.29
2023-01-09T07:25:01.772Z,9.65
2023-01-09T07:27:29.545Z,10.89
2023-01-09T07:29:57.408Z,10.64
2023-01-09T07:32:25.194Z,9.48
2023-01-09T07:34:53.138Z,13.23
2023-01-09T07:37:22.226Z,12.64
2023-01-09T07:39:50.536Z,12.88
2023-01-09T07:42:19.121Z,12.67
2023-01-09T07:44:52.502Z,12.08
2023-01-09T07:47:20.337Z,12.23
2023-01-09T07:49:51.189Z,10.11
2023-01-09T07:52:19.004Z,9.79
2023-01-09T07:54:48.248Z,12.84
2023-01-09T07:57:16.023Z,12.09
2023-01-09T07:59:43.802Z,9.99
2023-01-09T08:02:12.321Z,10.21
2023-01-09T08:04:40.187Z,9.82
2023-01-09T08:07:08.116Z,10.64
2023-01-09T08:09:36.073Z,13.87
2023-01-09T08:12:05.859Z,10.73
2023-01-09T08:14:33.758Z,10.26
2023-01-09T08:17:02.642Z,9.73
2023-01-09T08:19:30.507Z,11.03
2023-01-09T08:21:58.234Z,11.38
2023-01-09T08:24:26.046Z,10.39
2023-01-09T08:26:53.878Z,11.65
2023-01-09T08:29:23.173Z,11.75
2023-01-09T08:31:51.993Z,12.58
2023-01-09T08:34:19.919Z,12.61
2023-01-09T08:36:47.793Z,14.78
2023-01-09T08:39:19.712Z,13.67
2023-01-09T08:42:05.290Z,16.46
2023-01-09T08:44:52.091Z,15.53
2023-01-09T08:47:22.662Z,15.40
2023-01-09T08:49:50.749Z,15.33
2023-01-09T08:52:18.727Z,16.12
2023-01-09T08:54:46.547Z,15.86
2023-01-09T08:57:14.375Z,14.43
2023-01-09T08:59:43.730Z,12.23
2023-01-09T09:02:12.522Z,13.68
2023-01-09T09:04:41.159Z,11.79
2023-01-09T09:07:09.609Z,11.96
2023-01-09T09:09:37.856Z,13.35
2023-01-09T09:12:06.826Z,12.73
2023-01-09T09:14:52.195Z,12.59
2023-01-09T09:17:35.764Z,11.68
2023-01-09T09:20:03.911Z,12.66
2023-01-09T09:22:31.983Z,11.79
2023-01-09T09:25:01.373Z,12.30
2023-01-09T09:27:29.552Z,12.03
2023-01-09T09:30:00.996Z,14.16
2023-01-09T09:32:30.251Z,12.61
2023-01-09T09:34:58.094Z,13.57
2023-01-09T09:37:26.134Z,13.56
2023-01-09T09:39:53.923Z,13.03
2023-01-09T09:42:57.933Z,12.37
2023-01-09T09:45:37.159Z,12.31
2023-01-09T09:48:24.082Z,11.56
2023-01-09T09:51:12.675Z,11.92
2023-01-09T09:53:44.658Z,11.69
2023-01-09T09:56:14.907Z,12.58
2023-01-09T09:58:47.322Z,13.12
2023-01-09T10:01:19.324Z,12.45
2023-01-09T10:03:53.023Z,11.39
2023-01-09T10:06:29.352Z,11.88
2023-01-09T10:09:03.586Z,10.50
2023-01-09T10:11:47.518Z,11.64
2023-01-09T10:14:23.612Z,13.87
2023-01-09T10:17:09.481Z,12.45
2023-01-09T10:19:53.097Z,11.84
2023-01-09T10:22:33.290Z,13.03
2023-01-09T10:25:22.728Z,10.89
2023-01-09T10:28:12.959Z,8.86
2023-01-09T10:30:54.109Z,8.67
2023-01-09T10:33:37.309Z,8.65
2023-01-09T10:36:34.690Z,8.55
2023-01-09T10:39:08.679Z,8.88
2023-01-09T10:41:41.187Z,8.59
2023-01-09T10:44:15.677Z,9.31
2023-01-09T10:46:48.903Z,8.90
2023-01-09T10:49:19.192Z,7.96
2023-01-09T10:51:51.213Z,7.42
2023-01-09T10:54:23.597Z,7.39
2023-01-09T10:56:56.751Z,9.57
2023-01-09T10:59:25.356Z,9.56
2023-01-09T11:01:54.719Z,10.54
2023-01-09T11:04:28.105Z,9.41
2023-01-09T11:07:01.430Z,8.59
2023-01-09T11:09:29.536Z,8.60
2023-01-09T11:11:57.458Z,7.70
2023-01-09T11:14:31.232Z,9.47
2023-01-09T11:17:03.488Z,7.90
2023-01-09T11:19:33.301Z,7.57
2023-01-09T11:22:16.398Z,9.04
2023-01-09T11:24:44.444Z,9.74
2023-01-09T11:27:24.906Z,9.04
2023-01-09T11:30:20.080Z,8.81
2023-01-09T11:32:49.187Z,9.09
2023-01-09T11:35:21.602Z,8.22
2023-01-09T11:38:09.642Z,8.89
2023-01-09T11:40:47.459Z,7.88
2023-01-09T11:43:20.003Z,9.11
2023-01-09T11:46:00.762Z,6.93
2023-01-09T11:48:33.264Z,7.30
2023-01-09T11:51:03.634Z,6.99
2023-01-09T11:53:46.594Z,7.55
2023-01-09T11:56:17.325Z,7.46
2023-01-09T11:58:46.008Z,7.37
2023-01-09T12:01:37.035Z,6.63
2023-01-09T12:04:25.286Z,6.74
2023-01-09T12:07:31.997Z,7.16
2023-01-09T12:10:10.415Z,8.38
2023-01-09T12:12:50.270Z,8.95
2023-01-09T12:15:28.137Z,8.30
2023-01-09T12:18:10.925Z,8.57
2023-01-09T12:20:52.867Z,7.81
2023-01-09T12:23:32.586Z,8.21
2023-01-09T12:26:17.797Z,8.02
2023-01-09T12:29:14.294Z,6.85
2023-01-09T12:32:18.031Z,8.61
2023-01-09T12:34:59.242Z,6.50
2023-01-09T12:38:05.423Z,8.10
2023-01-09T12:40:53.013Z,8.31
2023-01-09T12:43:32.456Z,7.50
2023-01-09T12:46:11.203Z,7.48
2023-01-09T12:48:54.732Z,7.81
2023-01-09T12:51:32.555Z,7.26
2023-01-09T12:54:05.324Z,7.81
2023-01-09T12:56:37.397Z,8.09
2023-01-09T12:59:30.215Z,8.38
2023-01-09T13:02:08.275Z,8.63
2023-01-09T13:04:41.114Z,8.80
2023-01-09T13:07:17.031Z,9.33
2023-01-09T13:09:50.608Z,9.67
2023-01-09T13:12:21.719Z,11.07
2023-01-09T13:14:55.592Z,11.60
2023-01-09T13:17:28.902Z,10.19
2023-01-09T13:19:56.818Z,13.28
2023-01-09T13:22:27.199Z,10.63
2023-01-09T13:25:07.238Z,12.07
2023-01-09T13:27:40.475Z,13.63
2023-01-09T13:30:22.156Z,13.70
2023-01-09T13:33:02.165Z,9.89
2023-01-09T13:35:30.392Z,11.22
2023-01-09T13:37:58.341Z,13.93
2023-01-09T13:40:30.305Z,13.70
2023-01-09T13:43:00.186Z,11.24
2023-01-09T13:45:31.435Z,11.45
2023-01-09T13:48:25.448Z,13.26
2023-01-09T13:50:55.750Z,11.26
2023-01-09T13:53:48.406Z,11.85
2023-01-09T13:56:16.386Z,13.29
2023-01-09T13:59:00.776Z,13.66
2023-01-09T14:01:44.458Z,13.13
2023-01-09T14:04:44.468Z,13.09
2023-01-09T14:07:23.529Z,12.80
2023-01-09T14:09:56.350Z,16.14
2023-01-09T14:12:25.125Z,15.63
2023-01-09T14:14:57.401Z,17.55
2023-01-09T14:17:33.525Z,16.67
2023-01-09T14:20:04.227Z,15.19
2023-01-09T14:22:42.422Z,16.04
2023-01-09T14:25:24.987Z,15.83
2023-01-09T14:28:22.024Z,15.04
2023-01-09T14:31:27.214Z,15.56
2023-01-09T14:34:31.075Z,12.81
2023-01-09T14:37:02.709Z,14.93
2023-01-09T14:39:32.883Z,13.70
2023-01-09T14:42:08.203Z,11.68
2023-01-09T14:44:48.576Z,14.24
2023-01-09T14:47:21.109Z,12.94
2023-01-09T14:49:56.641Z,13.31
2023-01-09T14:52:29.221Z,13.17
2023-01-09T14:55:00.587Z,14.57
2023-01-09T14:57:30.243Z,13.77
2023-01-09T15:00:02.532Z,15.60
2023-01-09T15:02:33.465Z,13.79
2023-01-09T15:05:09.233Z,11.73
2023-01-09T15:07:44.377Z,12.84
2023-01-09T15:10:18.253Z,14.33
2023-01-09T15:12:47.669Z,11.70
2023-01-09T15:15:16.804Z,12.66
2023-01-09T15:17:47.478Z,13.95
2023-01-09T15:20:24.988Z,13.58
2023-01-09T15:22:55.106Z,14.48
2023-01-09T15:25:34.003Z,14.87
2023-01-09T15:28:25.136Z,14.44
2023-01-09T15:31:01.074Z,15.66
2023-01-09T15:33:29.460Z,17.42
2023-01-09T15:36:02.693Z,13.61
2023-01-09T15:38:35.959Z,15.90
2023-01-09T15:41:09.589Z,16.44
2023-01-09T15:43:42.075Z,17.47
2023-01-09T15:46:12.275Z,16.27
2023-01-09T15:48:40.338Z,14.70
2023-01-09T15:51:13.407Z,14.55
2023-01-09T15:53:42.602Z,17.48
2023-01-09T15:56:20.573Z,18.06
2023-01-09T15:58:49.980Z,15.15
2023-01-09T16:01:27.035Z,18.99
2023-01-09T16:03:57.399Z,19.59
2023-01-09T16:06:28.799Z,17.28
2023-01-09T16:08:59.522Z,16.70
2023-01-09T16:11:30.126Z,16.60
2023-01-09T16:14:05.382Z,20.20
2023-01-09T16:16:35.138Z,18.35
2023-01-09T16:19:03.140Z,19.60
2023-01-09T16:21:35.697Z,19.27
2023-01-09T16:24:22.414Z,17.72
2023-01-09T16:26:53.232Z,17.02
2023-01-09T16:29:29.390Z,18.79
2023-01-09T16:32:01.729Z,17.16
2023-01-09T16:34:29.996Z,15.83
2023-01-09T16:36:59.098Z,16.78
2023-01-09T16:39:26.936Z,15.68
2023-01-09T16:42:23.952Z,13.35
2023-01-09T16:44:51.707Z,17.02
2023-01-09T16:47:19.491Z,13.04
2023-01-09T16:49:47.341Z,14.01
2023-01-09T16:52:18.177Z,13.27
2023-01-09T16:54:47.437Z,15.00
2023-01-09T16:57:18.706Z,13.81
2023-01-09T16:59:46.983Z,11.59
2023-01-09T17:02:19.100Z,14.53
2023-01-09T17:04:47.447Z,16.21
2023-01-09T17:07:18.264Z,15.13
2023-01-09T17:09:47.689Z,18.11
2023-01-09T17:12:19.797Z,15.47
2023-01-09T17:14:47.908Z,16.19
2023-01-09T17:17:16.470Z,15.42
2023-01-09T17:19:47.023Z,16.23
2023-01-09T17:22:14.951Z,18.33
2023-01-09T17:25:01.338Z,18.47
2023-01-09T17:27:52.817Z,15.73
2023-01-09T17:30:21.205Z,18.20
2023-01-09T17:32:49.760Z,14.91
2023-01-09T17:35:17.750Z,12.75
2023-01-09T17:37:45.800Z,13.96
2023-01-09T17:40:19.944Z,13.60
2023-01-09T17:42:48.011Z,12.22
2023-01-09T17:45:16.163Z,15.18
2023-01-09T17:47:44.070Z,17.00
2023-01-09T17:50:19.624Z,19.77
2023-01-09T17:52:47.601Z,13.85
2023-01-09T17:55:17.139Z,16.12
2023-01-09T17:57:45.024Z,13.54
2023-01-09T18:00:26.138Z,15.35
2023-01-09T18:02:54.405Z,16.07
2023-01-09T18:05:22.688Z,16.52
2023-01-09T18:07:51.128Z,14.17
2023-01-09T18:10:23.922Z,11.40
2023-01-09T18:12:53.928Z,12.85
2023-01-09T18:15:23.208Z,11.66
2023-01-09T18:17:52.090Z,15.51
2023-01-09T18:20:20.607Z,11.69
2023-01-09T18:22:49.604Z,10.98
2023-01-09T18:25:17.729Z,10.89
2023-01-09T18:27:47.207Z,13.84
2023-01-09T18:30:15.675Z,14.70
2023-01-09T18:32:43.873Z,13.44
2023-01-09T18:35:12.243Z,12.41
2023-01-09T18:37:40.526Z,13.83
2023-01-09T18:40:10.161Z,10.00
2023-01-09T18:42:39.306Z,11.15
2023-01-09T18:45:11.081Z,11.15
2023-01-09T18:47:39.025Z,15.92
2023-01-09T18:50:07.786Z,17.52
2023-01-09T18:52:35.791Z,14.25
2023-01-09T18:55:03.812Z,100.00
2023-01-09T18:57:33.497Z,45.18
2023-01-09T19:00:01.827Z,22.60
2023-01-09T19:02:31.261Z,100.00
2023-01-09T19:04:59.104Z,100.00
2023-01-09T19:07:27.153Z,100.00
2023-01-09T19:10:01.622Z,100.00
2023-01-09T19:12:30.043Z,100.00
2023-01-09T19:14:58.235Z,100.00
2023-01-09T19:17:26.322Z,100.00
2023-01-09T19:19:55.807Z,100.00
2023-01-09T19:22:23.978Z,100.00
2023-01-09T19:24:52.565Z,100.00
2023-01-09T19:27:20.605Z,100.00
2023-01-09T19:29:48.485Z,100.00
2023-01-09T19:32:16.755Z,100.00
2023-01-09T19:34:44.726Z,100.00
2023-01-09T19:37:14.900Z,100.00
2023-01-09T19:39:42.860Z,100.00
2023-01-09T19:42:10.870Z,100.00
2023-01-09T19:44:38.959Z,100.00
2023-01-09T19:47:07.155Z,100.00
2023-01-09T19:49:35.444Z,100.00
2023-01-09T19:52:04.369Z,100.00
2023-01-09T19:54:42.720Z,100.00
2023-01-09T19:57:17.710Z,100.00
2023-01-09T19:59:45.926Z,100.00
2023-01-09T20:02:16.270Z,100.00
2023-01-09T20:04:44.666Z,100.00
2023-01-09T20:07:13.356Z,100.00
2023-01-09T20:09:45.977Z,100.00
2023-01-09T20:12:14.413Z,100.00
2023-01-09T20:14:42.310Z,100.00
2023-01-09T20:17:10.491Z,100.00
2023-01-09T20:19:39.385Z,100.00
2023-01-09T20:22:19.632Z,100.00
2023-01-09T20:24:49.006Z,100.00
2023-01-09T20:27:16.964Z,100.00
2023-01-09T20:29:45.592Z,100.00
2023-01-09T20:32:15.900Z,100.00
2023-01-09T20:34:44.048Z,100.00
2023-01-09T20:37:12.704Z,100.00
2023-01-09T20:39:40.777Z,100.00
2023-01-09T20:42:11.222Z,100.00
2023-01-09T20:44:39.114Z,100.00
2023-01-09T20:47:07.025Z,100.00
2023-01-09T20:49:34.956Z,100.00
2023-01-09T20:52:03.142Z,100.00
2023-01-09T20:54:31.092Z,100.00
2023-01-09T20:56:59.123Z,100.00
2023-01-09T20:59:28.444Z,100.00
2023-01-09T21:01:56.456Z,100.00
2023-01-09T21:04:24.341Z,100.00
2023-01-09T21:06:52.145Z,100.00
2023-01-09T21:09:20.262Z,100.00
2023-01-09T21:11:48.081Z,100.00
2023-01-09T21:14:16.101Z,100.00
2023-01-09T21:16:53.784Z,100.00
2023-01-09T21:19:22.369Z,100.00
2023-01-09T21:21:52.856Z,100.00
2023-01-09T21:24:20.914Z,100.00
2023-01-09T21:26:48.788Z,100.00
2023-01-09T21:29:17.205Z,100.00
2023-01-09T21:31:47.556Z,100.00
2023-01-09T21:34:17.463Z,100.00
2023-01-09T21:36:48.715Z,100.00
2023-01-09T21:39:17.590Z,100.00
2023-01-09T21:42:03.375Z,100.00
2023-01-09T21:44:48.923Z,100.00
2023-01-09T21:47:18.393Z,100.00
2023-01-09T21:49:48.589Z,100.00
2023-01-09T21:52:26.608Z,100.00
2023-01-09T21:54:54.475Z,100.00
2023-01-09T21:57:22.263Z,100.00
2023-01-09T21:59:50.163Z,100.00
2023-01-09T22:02:19.363Z,100.00
2023-01-09T22:04:48.971Z,100.00
2023-01-09T22:07:16.752Z,100.00
2023-01-09T22:09:45.705Z,100.00
2023-01-09T22:12:13.995Z,100.00
2023-01-09T22:14:41.716Z,100.00
2023-01-09T22:17:09.491Z,99.67
2023-01-09T22:19:38.610Z,99.16
2023-01-09T22:22:08.403Z,100.00
2023-01-09T22:24:36.610Z,100.00
2023-01-09T22:27:04.764Z,100.00
2023-01-09T22:29:32.552Z,100.00
2023-01-09T22:32:00.614Z,100.00
2023-01-09T22:34:28.566Z,100.00
2023-01-09T22:36:57.718Z,100.00
2023-01-09T22:39:26.189Z,100.00
2023-01-09T22:41:55.163Z,100.00
2023-01-09T22:44:22.997Z,100.00
2023-01-09T22:46:50.668Z,100.00
2023-01-09T22:49:18.415Z,100.00
2023-01-09T22:51:46.126Z,100.00
2023-01-09T22:54:15.417Z,100.00
2023-01-09T22:56:43.121Z,100.00
2023-01-09T22:59:11.195Z,100.00
2023-01-09T23:01:39.047Z,100.00
2023-01-09T23:04:06.967Z,100.00
2023-01-09T23:06:34.735Z,100.00
2023-01-09T23:09:02.505Z,100.00
2023-01-09T23:11:50.152Z,100.00
2023-01-09T23:14:18.680Z,100.00
2023-01-09T23:16:46.436Z,100.00
2023-01-09T23:19:15.597Z,100.00
2023-01-09T23:21:44.448Z,100.00
2023-01-09T23:24:13.003Z,100.00
2023-01-09T23:26:43.485Z,100.00
2023-01-09T23:29:12.545Z,99.87
2023-01-09T23:31:40.312Z,100.00
2023-01-09T23:34:08.288Z,100.00
2023-01-09T23:36:36.368Z,100.00
2023-01-09T23:39:08.722Z,100.00
2023-01-09T23:41:54.497Z,100.00
2023-01-09T23:44:23.639Z,100.00
2023-01-09T23:46:51.744Z,100.00
2023-01-09T23:49:19.705Z,100.00
2023-01-09T23:51:47.640Z,100.00
2023-01-09T23:54:16.306Z,100.00
2023-01-09T23:56:44.004Z,100.00
2023-01-09T23:59:14.098Z,98.32
